createdAt,value
2022-10-22T00:00:11.782Z,11.1
2022-10-22T00:03:12.367Z,11.1
2022-10-22T00:06:11.681Z,11.1
2022-10-22T00:09:12.547Z,11.1
2022-10-22T00:12:11.710Z,11.1
2022-10-22T00:15:11.788Z,11.1
2022-10-22T00:18:11.716Z,11
2022-10-22T00:21:11.790Z,11
2022-10-22T00:24:11.863Z,11.1
2022-10-22T00:27:11.763Z,11.1
2022-10-22T00:30:11.806Z,11.1
2022-10-22T00:33:11.790Z,11.3
2022-10-22T00:36:11.730Z,11.3
2022-10-22T00:39:11.816Z,11.3
2022-10-22T00:42:11.721Z,11.1
2022-10-22T00:45:11.851Z,11.1
2022-10-22T00:48:11.779Z,11.1
2022-10-22T00:51:11.666Z,11.1
2022-10-22T00:54:11.719Z,11.3
2022-10-22T00:57:11.923Z,11.4
2022-10-22T01:00:11.919Z,11.6
2022-10-22T01:03:11.864Z,11.8
2022-10-22T01:06:11.996Z,11.8
2022-10-22T01:09:12.154Z,11.8
2022-10-22T01:12:11.735Z,11.8
2022-10-22T01:15:11.760Z,11.8
2022-10-22T01:18:11.890Z,11.8
2022-10-22T01:21:11.714Z,11.8
2022-10-22T01:24:11.778Z,11.8
2022-10-22T01:27:11.698Z,11.6
2022-10-22T01:30:11.750Z,11.8
2022-10-22T01:33:11.777Z,11.8
2022-10-22T01:36:11.698Z,11.6
2022-10-22T01:39:11.750Z,11.6
2022-10-22T01:42:11.739Z,11.5
2022-10-22T01:45:11.880Z,11.5
2022-10-22T01:48:11.692Z,11.5
2022-10-22T01:51:11.721Z,11.5
2022-10-22T01:54:11.728Z,11.5
2022-10-22T01:57:11.758Z,11.4
2022-10-22T02:00:11.730Z,11.4
2022-10-22T02:03:11.744Z,11.3
2022-10-22T02:06:11.863Z,11.3
2022-10-22T02:09:12.403Z,11.3
2022-10-22T02:12:11.930Z,11.3
2022-10-22T02:15:11.907Z,11.1
2022-10-22T02:18:11.647Z,11.1
2022-10-22T02:21:12.922Z,11.1
2022-10-22T02:24:11.712Z,11.1
2022-10-22T02:27:11.681Z,11.3
2022-10-22T02:30:12.353Z,11.3
2022-10-22T02:33:11.670Z,11.1
2022-10-22T02:36:11.647Z,11.3
2022-10-22T02:39:12.017Z,11.3
2022-10-22T02:42:11.662Z,11.1
2022-10-22T02:45:11.899Z,11.1
2022-10-22T02:48:11.947Z,11.1
2022-10-22T02:51:11.702Z,11.1
2022-10-22T02:54:11.776Z,11
2022-10-22T02:57:11.908Z,11
2022-10-22T03:00:11.973Z,11
2022-10-22T03:03:11.754Z,10.9
2022-10-22T03:06:11.830Z,10.9
2022-10-22T03:09:12.107Z,10.9
2022-10-22T03:12:11.730Z,10.8
2022-10-22T03:15:11.900Z,10.9
2022-10-22T03:18:11.769Z,10.8
2022-10-22T03:21:11.741Z,10.8
2022-10-22T03:24:11.668Z,10.8
2022-10-22T03:27:11.797Z,10.8
2022-10-22T03:30:11.694Z,10.8
2022-10-22T03:33:11.759Z,10.6
2022-10-22T03:36:11.826Z,10.6
2022-10-22T03:39:11.727Z,10.6
2022-10-22T03:42:11.688Z,10.5
2022-10-22T03:45:11.776Z,10.5
2022-10-22T03:48:11.665Z,10.5
2022-10-22T03:51:11.641Z,10.4
2022-10-22T03:54:11.770Z,10.3
2022-10-22T03:57:11.673Z,10.3
2022-10-22T04:00:11.924Z,10.3
2022-10-22T04:03:11.680Z,10.3
2022-10-22T04:06:11.718Z,10.3
2022-10-22T04:09:12.258Z,10.4
2022-10-22T04:12:11.811Z,10.6
2022-10-22T04:15:11.767Z,10.9
2022-10-22T04:18:11.734Z,11
2022-10-22T04:21:11.782Z,11.1
2022-10-22T04:24:11.781Z,11.4
2022-10-22T04:27:11.806Z,11.8
2022-10-22T04:30:11.751Z,12
2022-10-22T04:33:11.791Z,12.1
2022-10-22T04:36:11.726Z,12.4
2022-10-22T04:39:11.676Z,12.4
2022-10-22T04:42:11.716Z,12.4
2022-10-22T04:45:11.822Z,12.2
2022-10-22T04:48:11.690Z,12.2
2022-10-22T04:51:11.713Z,12.1
2022-10-22T04:54:11.704Z,12.1
2022-10-22T04:57:11.713Z,12
2022-10-22T05:00:12.034Z,12
2022-10-22T05:03:11.675Z,11.9
2022-10-22T05:09:12.364Z,11.8
2022-10-22T05:12:11.760Z,11.8
2022-10-22T05:15:11.711Z,11.8
2022-10-22T05:18:11.880Z,11.6
2022-10-22T05:21:11.776Z,11.6
2022-10-22T05:24:11.776Z,11.6
2022-10-22T05:27:12.341Z,11.5
2022-10-22T05:30:11.824Z,11.5
2022-10-22T05:33:11.695Z,11.4
2022-10-22T05:36:11.651Z,11.4
2022-10-22T05:39:11.690Z,11.4
2022-10-22T05:42:11.749Z,11.3
2022-10-22T05:45:11.683Z,11.3
2022-10-22T05:48:11.795Z,11.3
2022-10-22T05:51:11.722Z,11.3
2022-10-22T05:54:11.785Z,11.3
2022-10-22T05:57:11.775Z,11.3
2022-10-22T06:00:18.674Z,11.1
2022-10-22T06:03:11.768Z,11.1
2022-10-22T06:06:11.794Z,11.3
2022-10-22T06:09:12.221Z,11.3
2022-10-22T06:12:11.807Z,11.3
2022-10-22T06:15:11.783Z,11.3
2022-10-22T06:18:11.777Z,11.3
2022-10-22T06:21:11.849Z,11.3
2022-10-22T06:24:11.905Z,11.4
2022-10-22T06:27:11.779Z,11.4
2022-10-22T06:30:11.775Z,11.4
2022-10-22T06:33:11.824Z,11.5
2022-10-22T06:36:18.646Z,11.5
2022-10-22T06:39:11.733Z,11.5
2022-10-22T06:42:11.805Z,11.6
2022-10-22T06:48:11.791Z,11.6
2022-10-22T06:51:11.902Z,11.8
2022-10-22T06:54:11.762Z,11.8
2022-10-22T06:57:11.824Z,11.9
2022-10-22T07:00:12.139Z,12
2022-10-22T07:03:11.791Z,12.1
2022-10-22T07:06:12.109Z,12.1
2022-10-22T07:09:13.005Z,12.4
2022-10-22T07:12:11.856Z,12.5
2022-10-22T07:15:11.976Z,12.8
2022-10-22T07:18:11.885Z,13.1
2022-10-22T07:21:13.007Z,13.6
2022-10-22T07:24:11.747Z,14
2022-10-22T07:27:17.667Z,14.5
2022-10-22T07:30:11.971Z,15
2022-10-22T07:33:11.904Z,15.4
2022-10-22T07:36:11.802Z,15.8
2022-10-22T07:39:11.912Z,16
2022-10-22T07:42:11.704Z,16.3
2022-10-22T07:45:11.744Z,16.5
2022-10-22T07:48:11.816Z,16.6
2022-10-22T07:51:11.773Z,16.6
2022-10-22T07:54:11.754Z,16.6
2022-10-22T07:57:11.783Z,16.6
2022-10-22T08:00:11.869Z,16.6
2022-10-22T08:03:11.727Z,16.5
2022-10-22T08:06:11.786Z,16.4
2022-10-22T08:09:12.217Z,16.3
2022-10-22T08:12:11.764Z,16.3
2022-10-22T08:15:11.839Z,16.1
2022-10-22T08:18:11.773Z,16
2022-10-22T08:21:11.779Z,16
2022-10-22T08:24:11.903Z,16.1
2022-10-22T08:27:11.812Z,16.6
2022-10-22T08:30:11.780Z,17.1
2022-10-22T08:33:11.796Z,20.9
2022-10-22T08:36:11.776Z,23.1
2022-10-22T08:39:11.828Z,22.4
2022-10-22T08:42:11.827Z,24.3
2022-10-22T08:45:11.919Z,25.4
2022-10-22T08:48:11.752Z,27.4
2022-10-22T08:51:11.781Z,28.7
2022-10-22T08:54:11.719Z,29.8
2022-10-22T08:57:11.899Z,30.5
2022-10-22T09:00:11.819Z,31.2
2022-10-22T09:03:11.842Z,31.9
2022-10-22T09:06:11.760Z,32.4
2022-10-22T09:09:12.224Z,32.9
2022-10-22T09:12:12.077Z,33.4
2022-10-22T09:15:11.906Z,33.7
2022-10-22T09:18:11.852Z,34.1
2022-10-22T09:21:11.825Z,34.5
2022-10-22T09:24:11.814Z,34.7
2022-10-22T09:27:11.822Z,35
2022-10-22T09:30:11.862Z,35.5
2022-10-22T09:33:11.763Z,35.7
2022-10-22T09:36:11.876Z,36.1
2022-10-22T09:39:12.252Z,36.2
2022-10-22T09:42:11.880Z,36.6
2022-10-22T09:45:11.789Z,36.9
2022-10-22T09:48:13.682Z,37
2022-10-22T09:51:11.702Z,37.2
2022-10-22T09:54:11.770Z,37.5
2022-10-22T09:57:11.776Z,37.9
2022-10-22T10:00:12.019Z,38.1
2022-10-22T10:03:12.156Z,38.2
2022-10-22T10:06:17.263Z,38.5
2022-10-22T10:09:12.780Z,38.7
2022-10-22T10:12:11.789Z,38.9
2022-10-22T10:15:11.780Z,39
2022-10-22T10:18:11.785Z,39.1
2022-10-22T10:21:12.242Z,37.9
2022-10-22T10:24:11.727Z,36.4
2022-10-22T10:27:11.738Z,38.1
2022-10-22T10:30:11.939Z,38.9
2022-10-22T10:33:11.708Z,39.1
2022-10-22T10:36:11.813Z,39.5
2022-10-22T10:39:11.771Z,37.5
2022-10-22T10:42:11.754Z,36.9
2022-10-22T10:45:11.839Z,38.2
2022-10-22T10:48:11.790Z,39.1
2022-10-22T10:51:11.883Z,39.6
2022-10-22T10:54:11.752Z,40
2022-10-22T10:57:11.748Z,40.2
2022-10-22T11:00:11.942Z,40.4
2022-10-22T11:03:11.820Z,40.4
2022-10-22T11:06:11.752Z,40.5
2022-10-22T11:09:12.446Z,38.6
2022-10-22T11:12:11.811Z,39.4
2022-10-22T11:15:11.903Z,39.7
2022-10-22T11:18:11.831Z,40
2022-10-22T11:21:11.781Z,40.1
2022-10-22T11:24:11.712Z,40.1
2022-10-22T11:27:11.797Z,40
2022-10-22T11:30:11.892Z,39.9
2022-10-22T11:33:11.719Z,39.9
2022-10-22T11:36:11.821Z,39.9
2022-10-22T11:39:11.783Z,39.9
2022-10-22T11:42:11.820Z,39.6
2022-10-22T11:45:11.808Z,39.7
2022-10-22T11:48:11.881Z,39.5
2022-10-22T11:51:11.775Z,36.1
2022-10-22T11:54:11.851Z,35.9
2022-10-22T11:57:11.839Z,34
2022-10-22T12:00:11.992Z,33.5
2022-10-22T12:03:11.980Z,31.2
2022-10-22T12:06:11.699Z,30
2022-10-22T12:09:12.452Z,28.1
2022-10-22T12:12:11.731Z,27
2022-10-22T12:15:11.834Z,26.8
2022-10-22T12:18:12.075Z,26.1
2022-10-22T12:21:11.804Z,25.5
2022-10-22T12:24:11.791Z,25.4
2022-10-22T12:27:14.603Z,27.5
2022-10-22T12:30:11.867Z,31.6
2022-10-22T12:33:11.723Z,34.1
2022-10-22T12:36:11.764Z,35.7
2022-10-22T12:39:11.761Z,34.1
2022-10-22T12:42:11.775Z,33.6
2022-10-22T12:45:11.960Z,31
2022-10-22T12:48:11.737Z,29.5
2022-10-22T12:51:11.690Z,31.2
2022-10-22T12:54:11.809Z,33.9
2022-10-22T12:57:11.762Z,34.7
2022-10-22T13:03:11.975Z,34.9
2022-10-22T13:06:11.750Z,34
2022-10-22T13:09:12.541Z,35.6
2022-10-22T13:12:11.717Z,34.1
2022-10-22T13:15:11.785Z,30.6
2022-10-22T13:18:11.820Z,28.3
2022-10-22T13:21:11.754Z,26.5
2022-10-22T13:24:11.775Z,25.1
2022-10-22T13:27:11.686Z,24.4
2022-10-22T13:30:11.988Z,23.9
2022-10-22T13:33:12.236Z,23.5
2022-10-22T13:36:11.771Z,23.4
2022-10-22T13:39:11.751Z,23.3
2022-10-22T13:42:11.840Z,22.9
2022-10-22T13:45:11.746Z,22.8
2022-10-22T13:48:11.819Z,22.8
2022-10-22T13:51:11.754Z,23.1
2022-10-22T13:54:11.737Z,23.3
2022-10-22T13:57:11.790Z,23.5
2022-10-22T14:00:11.917Z,24
2022-10-22T14:03:11.802Z,28.1
2022-10-22T14:06:11.684Z,30.3
2022-10-22T14:09:12.305Z,32.5
2022-10-22T14:12:11.722Z,33.7
2022-10-22T14:15:11.839Z,34
2022-10-22T14:18:11.729Z,34.1
2022-10-22T14:21:11.785Z,31.2
2022-10-22T14:24:17.711Z,30.1
2022-10-22T14:27:11.762Z,28.1
2022-10-22T14:30:11.912Z,26.5
2022-10-22T14:33:11.757Z,24.9
2022-10-22T14:36:11.844Z,23.6
2022-10-22T14:39:11.789Z,22.6
2022-10-22T14:42:11.768Z,21.9
2022-10-22T14:45:11.815Z,21.4
2022-10-22T14:48:11.992Z,21
2022-10-22T14:51:11.939Z,20.6
2022-10-22T14:54:11.914Z,20.1
2022-10-22T14:57:11.820Z,19.6
2022-10-22T15:00:11.873Z,19
2022-10-22T15:03:15.519Z,18.8
2022-10-22T15:06:11.759Z,18.5
2022-10-22T15:09:12.386Z,18.8
2022-10-22T15:12:11.836Z,19.3
2022-10-22T15:15:11.761Z,19.4
2022-10-22T15:18:11.740Z,19.3
2022-10-22T15:21:11.870Z,19
2022-10-22T15:24:11.818Z,18.6
2022-10-22T15:27:11.800Z,18.4
2022-10-22T15:30:11.971Z,18
2022-10-22T15:33:11.801Z,17.6
2022-10-22T15:36:11.764Z,17.2
2022-10-22T15:39:11.826Z,17
2022-10-22T15:42:11.799Z,16.8
2022-10-22T15:45:11.781Z,16.4
2022-10-22T15:48:17.554Z,16.1
2022-10-22T15:51:11.753Z,16
2022-10-22T15:54:16.929Z,15.8
2022-10-22T15:57:11.762Z,15.6
2022-10-22T16:00:12.177Z,15.4
2022-10-22T16:03:11.739Z,15.3
2022-10-22T16:06:11.869Z,15.1
2022-10-22T16:09:12.383Z,14.9
2022-10-22T16:12:14.148Z,14.7
2022-10-22T16:15:11.757Z,14.5
2022-10-22T16:18:11.694Z,14.4
2022-10-22T16:21:11.674Z,14.3
2022-10-22T16:24:17.586Z,14
2022-10-22T16:27:11.902Z,13.9
2022-10-22T16:30:11.722Z,13.8
2022-10-22T16:33:14.702Z,13.6
2022-10-22T16:36:11.924Z,13.5
2022-10-22T16:39:11.791Z,13.4
2022-10-22T16:42:11.692Z,13.3
2022-10-22T16:45:12.298Z,13.3
2022-10-22T16:48:11.726Z,13.1
2022-10-22T16:51:11.804Z,13
2022-10-22T16:54:18.766Z,13
2022-10-22T16:57:11.668Z,13
2022-10-22T17:00:11.835Z,12.9
2022-10-22T17:03:11.745Z,12.8
2022-10-22T17:06:11.700Z,12.8
2022-10-22T17:09:12.410Z,12.8
2022-10-22T17:12:11.808Z,12.8
2022-10-22T17:15:11.726Z,12.8
2022-10-22T17:18:11.817Z,12.9
2022-10-22T17:21:11.817Z,13
2022-10-22T17:24:11.776Z,13.3
2022-10-22T17:27:11.898Z,13.5
2022-10-22T17:30:11.791Z,13.6
2022-10-22T17:33:11.754Z,13.9
2022-10-22T17:36:11.687Z,13.9
2022-10-22T17:39:11.829Z,14
2022-10-22T17:42:11.699Z,14
2022-10-22T17:45:11.736Z,14.1
2022-10-22T17:48:11.811Z,14.1
2022-10-22T17:51:11.698Z,14.3
2022-10-22T17:54:18.766Z,14.3
2022-10-22T17:57:11.720Z,14.4
2022-10-22T18:00:12.106Z,14.4
2022-10-22T18:03:11.699Z,14.4
2022-10-22T18:06:11.751Z,14.4
2022-10-22T18:09:14.529Z,14.4
2022-10-22T18:12:11.709Z,14.5
2022-10-22T18:15:11.862Z,14.5
2022-10-22T18:18:11.686Z,14.5
2022-10-22T18:21:11.672Z,14.5
2022-10-22T18:24:11.676Z,14.5
2022-10-22T18:27:11.729Z,14.5
2022-10-22T18:30:11.863Z,14.5
2022-10-22T18:33:11.692Z,14.5
2022-10-22T18:36:11.746Z,14.5
2022-10-22T18:39:11.798Z,14.5
2022-10-22T18:42:12.088Z,14.5
2022-10-22T18:45:11.723Z,14.5
2022-10-22T18:48:11.732Z,14.5
2022-10-22T18:51:11.772Z,14.5
2022-10-22T18:54:31.818Z,14.5
2022-10-22T18:57:14.290Z,14.5
2022-10-22T19:00:11.863Z,14.5
2022-10-22T19:03:11.711Z,14.5
2022-10-22T19:06:11.686Z,14.5
2022-10-22T19:09:12.285Z,14.5
2022-10-22T19:12:11.743Z,14.6
2022-10-22T19:15:11.734Z,14.6
2022-10-22T19:18:11.791Z,14.6
2022-10-22T19:21:11.799Z,14.6
2022-10-22T19:24:11.753Z,14.6
2022-10-22T19:27:11.738Z,14.6
2022-10-22T19:30:11.875Z,14.6
2022-10-22T19:33:11.714Z,14.5
2022-10-22T19:36:11.688Z,14.5
2022-10-22T19:39:11.710Z,14.4
2022-10-22T19:42:11.781Z,14.4
2022-10-22T19:45:11.795Z,14.5
2022-10-22T19:48:11.987Z,14.5
2022-10-22T19:51:11.669Z,14.5
2022-10-22T19:54:11.822Z,14.5
2022-10-22T19:57:11.717Z,14.5
2022-10-22T20:00:11.772Z,14.5
2022-10-22T20:03:11.930Z,14.4
2022-10-22T20:06:11.656Z,14.3
2022-10-22T20:09:12.003Z,14
2022-10-22T20:12:11.653Z,13.8
2022-10-22T20:15:11.749Z,13.6
2022-10-22T20:18:11.768Z,13.4
2022-10-22T20:21:11.692Z,13.3
2022-10-22T20:24:11.870Z,13.1
2022-10-22T20:27:11.699Z,13
2022-10-22T20:30:12.090Z,13
2022-10-22T20:33:11.783Z,12.9
2022-10-22T20:36:11.649Z,12.9
2022-10-22T20:39:11.693Z,12.9
2022-10-22T20:42:11.709Z,12.8
2022-10-22T20:45:11.942Z,12.6
2022-10-22T20:48:15.412Z,12.5
2022-10-22T20:51:11.888Z,12.4
2022-10-22T20:54:11.716Z,12.2
2022-10-22T20:57:11.829Z,12.2
2022-10-22T21:00:12.004Z,12.1
2022-10-22T21:03:11.787Z,12.1
2022-10-22T21:06:11.769Z,12.1
2022-10-22T21:09:12.342Z,12.1
2022-10-22T21:12:11.751Z,12.1
2022-10-22T21:15:17.290Z,12.1
2022-10-22T21:18:11.675Z,12.1
2022-10-22T21:21:11.736Z,12.1
2022-10-22T21:24:11.819Z,12
2022-10-22T21:27:11.886Z,12
2022-10-22T21:30:11.740Z,11.9
2022-10-22T21:33:11.939Z,11.9
2022-10-22T21:36:11.775Z,11.8
2022-10-22T21:39:11.675Z,11.8
2022-10-22T21:42:11.711Z,11.6
2022-10-22T21:45:24.435Z,11.6
2022-10-22T21:48:11.802Z,11.5
2022-10-22T21:51:11.977Z,11.5
2022-10-22T21:54:11.757Z,11.4
2022-10-22T21:57:11.871Z,11.4
2022-10-22T22:00:13.367Z,11.4
2022-10-22T22:03:11.694Z,11.4
2022-10-22T22:06:11.787Z,11.3
2022-10-22T22:09:12.564Z,11.3
2022-10-22T22:12:11.770Z,11.4
2022-10-22T22:15:11.972Z,11.4
2022-10-22T22:18:11.802Z,11.4
2022-10-22T22:21:11.693Z,11.3
2022-10-22T22:24:11.695Z,11.1
2022-10-22T22:27:11.960Z,10.9
2022-10-22T22:30:11.971Z,10.8
2022-10-22T22:33:11.710Z,10.5
2022-10-22T22:36:11.723Z,10.4
2022-10-22T22:39:11.666Z,10.3
2022-10-22T22:42:11.709Z,10.1
2022-10-22T22:45:11.734Z,9.9
2022-10-22T22:48:11.672Z,9.8
2022-10-22T22:51:11.720Z,9.8
2022-10-22T22:54:11.922Z,9.6
2022-10-22T22:57:11.783Z,9.5
2022-10-22T23:00:11.708Z,9.5
2022-10-22T23:03:11.725Z,9.5
2022-10-22T23:06:11.675Z,9.4
2022-10-22T23:09:12.671Z,9.4
2022-10-22T23:12:11.944Z,9.3
2022-10-22T23:15:11.662Z,9.3
2022-10-22T23:18:11.770Z,9.3
2022-10-22T23:21:11.694Z,9.3
2022-10-22T23:24:11.705Z,9.3
2022-10-22T23:27:11.714Z,9.3
2022-10-22T23:30:11.723Z,9.1
2022-10-22T23:33:11.700Z,9.1
2022-10-22T23:36:11.706Z,9.1
2022-10-22T23:39:11.784Z,9
2022-10-22T23:42:11.720Z,9
2022-10-22T23:45:11.867Z,8.9
2022-10-22T23:48:11.752Z,8.9
2022-10-22T23:51:11.669Z,8.9
2022-10-22T23:54:11.676Z,8.9
2022-10-22T23:57:11.743Z,8.9
